sensor_id;sensor_type;location;lat;lon;timestamp;P1;durP1;ratioP1;P2;durP2;ratioP2
31818;SDS011;18384;48.860;9.188;2023-12-20T00:01:50;3.05;;;1.83;;
31818;SDS011;18384;48.860;9.188;2023-12-20T00:04:16;2.28;;;1.55;;
31818;SDS011;18384;48.860;9.188;2023-12-20T00:06:42;2.62;;;1.50;;
31818;SDS011;18384;48.860;9.188;2023-12-20T00:11:35;2.58;;;1.10;;
31818;SDS011;18384;48.860;9.188;2023-12-20T00:14:01;3.95;;;1.50;;
31818;SDS011;18384;48.860;9.188;2023-12-20T00:16:27;3.00;;;1.60;;
31818;SDS011;18384;48.860;9.188;2023-12-20T00:18:53;3.17;;;2.03;;
31818;SDS011;18384;48.860;9.188;2023-12-20T00:21:19;2.78;;;1.75;;
31818;SDS011;18384;48.860;9.188;2023-12-20T00:23:45;3.47;;;1.70;;
31818;SDS011;18384;48.860;9.188;2023-12-20T00:26:11;6.03;;;1.83;;
31818;SDS011;18384;48.860;9.188;2023-12-20T00:28:37;2.67;;;1.73;;
31818;SDS011;18384;48.860;9.188;2023-12-20T00:31:03;2.87;;;1.70;;
31818;SDS011;18384;48.860;9.188;2023-12-20T00:33:30;4.45;;;1.90;;
31818;SDS011;18384;48.860;9.188;2023-12-20T00:35:57;2.28;;;1.50;;
31818;SDS011;18384;48.860;9.188;2023-12-20T00:38:23;5.43;;;1.87;;
31818;SDS011;18384;48.860;9.188;2023-12-20T00:40:49;2.70;;;1.83;;
31818;SDS011;18384;48.860;9.188;2023-12-20T00:43:15;3.30;;;1.87;;
31818;SDS011;18384;48.860;9.188;2023-12-20T00:45:41;2.42;;;1.48;;
31818;SDS011;18384;48.860;9.188;2023-12-20T00:48:07;4.75;;;2.10;;
31818;SDS011;18384;48.860;9.188;2023-12-20T00:50:33;3.22;;;2.05;;
31818;SDS011;18384;48.860;9.188;2023-12-20T00:53:00;4.18;;;2.25;;
31818;SDS011;18384;48.860;9.188;2023-12-20T00:55:26;4.43;;;2.22;;
31818;SDS011;18384;48.860;9.188;2023-12-20T00:57:52;3.30;;;2.03;;
31818;SDS011;18384;48.860;9.188;2023-12-20T01:00:19;2.87;;;1.73;;
31818;SDS011;18384;48.860;9.188;2023-12-20T01:02:45;3.22;;;1.70;;
31818;SDS011;18384;48.860;9.188;2023-12-20T01:05:14;4.03;;;2.22;;
31818;SDS011;18384;48.860;9.188;2023-12-20T01:07:40;3.92;;;2.53;;
31818;SDS011;18384;48.860;9.188;2023-12-20T01:10:07;6.32;;;2.95;;
31818;SDS011;18384;48.860;9.188;2023-12-20T01:12:33;6.60;;;3.10;;
31818;SDS011;18384;48.860;9.188;2023-12-20T01:15:01;4.30;;;2.65;;
31818;SDS011;18384;48.860;9.188;2023-12-20T01:19:53;4.20;;;2.65;;
31818;SDS011;18384;48.860;9.188;2023-12-20T01:22:19;5.75;;;2.70;;
31818;SDS011;18384;48.860;9.188;2023-12-20T01:24:46;3.62;;;2.60;;
31818;SDS011;18384;48.860;9.188;2023-12-20T01:27:12;10.50;;;4.60;;
31818;SDS011;18384;48.860;9.188;2023-12-20T01:29:38;8.80;;;3.92;;
31818;SDS011;18384;48.860;9.188;2023-12-20T01:32:04;9.05;;;4.80;;
31818;SDS011;18384;48.860;9.188;2023-12-20T01:34:31;4.40;;;2.40;;
31818;SDS011;18384;48.860;9.188;2023-12-20T01:36:57;6.03;;;2.55;;
31818;SDS011;18384;48.860;9.188;2023-12-20T01:39:23;3.97;;;2.30;;
31818;SDS011;18384;48.860;9.188;2023-12-20T01:41:49;4.35;;;2.33;;
31818;SDS011;18384;48.860;9.188;2023-12-20T01:44:15;3.80;;;2.40;;
31818;SDS011;18384;48.860;9.188;2023-12-20T01:46:41;4.50;;;2.30;;
31818;SDS011;18384;48.860;9.188;2023-12-20T01:49:08;3.58;;;2.55;;
31818;SDS011;18384;48.860;9.188;2023-12-20T01:51:34;10.70;;;3.70;;
31818;SDS011;18384;48.860;9.188;2023-12-20T01:54:01;4.70;;;2.28;;
31818;SDS011;18384;48.860;9.188;2023-12-20T01:56:28;4.18;;;2.20;;
31818;SDS011;18384;48.860;9.188;2023-12-20T01:58:56;4.60;;;2.53;;
31818;SDS011;18384;48.860;9.188;2023-12-20T02:01:22;3.60;;;2.10;;
31818;SDS011;18384;48.860;9.188;2023-12-20T02:03:49;6.57;;;2.58;;
31818;SDS011;18384;48.860;9.188;2023-12-20T02:06:17;3.72;;;2.30;;
31818;SDS011;18384;48.860;9.188;2023-12-20T02:08:44;3.78;;;2.53;;
31818;SDS011;18384;48.860;9.188;2023-12-20T02:11:10;5.80;;;2.72;;
31818;SDS011;18384;48.860;9.188;2023-12-20T02:13:36;2.75;;;2.20;;
31818;SDS011;18384;48.860;9.188;2023-12-20T02:16:02;3.58;;;2.60;;
31818;SDS011;18384;48.860;9.188;2023-12-20T02:18:29;3.90;;;2.35;;
31818;SDS011;18384;48.860;9.188;2023-12-20T02:20:55;4.28;;;2.30;;
31818;SDS011;18384;48.860;9.188;2023-12-20T02:23:21;4.05;;;2.20;;
31818;SDS011;18384;48.860;9.188;2023-12-20T02:25:47;6.35;;;2.45;;
31818;SDS011;18384;48.860;9.188;2023-12-20T02:28:13;4.10;;;2.37;;
31818;SDS011;18384;48.860;9.188;2023-12-20T02:33:07;7.50;;;2.08;;
31818;SDS011;18384;48.860;9.188;2023-12-20T02:35:36;3.45;;;2.20;;
31818;SDS011;18384;48.860;9.188;2023-12-20T02:38:03;6.35;;;2.37;;
31818;SDS011;18384;48.860;9.188;2023-12-20T02:42:55;3.58;;;2.00;;
31818;SDS011;18384;48.860;9.188;2023-12-20T02:45:21;2.35;;;1.50;;
31818;SDS011;18384;48.860;9.188;2023-12-20T02:47:47;2.40;;;1.30;;
31818;SDS011;18384;48.860;9.188;2023-12-20T02:50:13;2.95;;;0.90;;
31818;SDS011;18384;48.860;9.188;2023-12-20T02:52:44;1.35;;;0.90;;
31818;SDS011;18384;48.860;9.188;2023-12-20T02:55:10;1.27;;;0.85;;
31818;SDS011;18384;48.860;9.188;2023-12-20T02:57:37;4.75;;;0.90;;
31818;SDS011;18384;48.860;9.188;2023-12-20T03:00:07;1.08;;;0.70;;
31818;SDS011;18384;48.860;9.188;2023-12-20T03:02:35;1.70;;;0.70;;
31818;SDS011;18384;48.860;9.188;2023-12-20T03:07:27;0.88;;;0.55;;
31818;SDS011;18384;48.860;9.188;2023-12-20T03:09:53;1.20;;;0.90;;
31818;SDS011;18384;48.860;9.188;2023-12-20T03:12:19;2.75;;;0.85;;
31818;SDS011;18384;48.860;9.188;2023-12-20T03:14:45;1.65;;;0.70;;
31818;SDS011;18384;48.860;9.188;2023-12-20T03:17:13;1.37;;;0.80;;
31818;SDS011;18384;48.860;9.188;2023-12-20T03:19:39;4.12;;;0.90;;
31818;SDS011;18384;48.860;9.188;2023-12-20T03:22:05;1.02;;;0.80;;
31818;SDS011;18384;48.860;9.188;2023-12-20T03:24:31;1.42;;;0.85;;
31818;SDS011;18384;48.860;9.188;2023-12-20T03:26:58;1.37;;;0.80;;
31818;SDS011;18384;48.860;9.188;2023-12-20T03:29:24;2.17;;;0.95;;
31818;SDS011;18384;48.860;9.188;2023-12-20T03:31:50;1.87;;;0.80;;
31818;SDS011;18384;48.860;9.188;2023-12-20T03:34:16;2.30;;;0.70;;
31818;SDS011;18384;48.860;9.188;2023-12-20T03:36:42;1.30;;;0.70;;
31818;SDS011;18384;48.860;9.188;2023-12-20T03:39:13;1.52;;;0.90;;
31818;SDS011;18384;48.860;9.188;2023-12-20T03:41:39;2.17;;;0.90;;
31818;SDS011;18384;48.860;9.188;2023-12-20T03:44:05;0.75;;;0.60;;
31818;SDS011;18384;48.860;9.188;2023-12-20T03:46:31;1.10;;;0.80;;
31818;SDS011;18384;48.860;9.188;2023-12-20T03:48:57;2.08;;;0.93;;
31818;SDS011;18384;48.860;9.188;2023-12-20T03:51:23;0.70;;;0.60;;
31818;SDS011;18384;48.860;9.188;2023-12-20T03:53:49;0.80;;;0.60;;
31818;SDS011;18384;48.860;9.188;2023-12-20T03:56:15;1.45;;;0.70;;
31818;SDS011;18384;48.860;9.188;2023-12-20T03:58:41;1.60;;;0.90;;
31818;SDS011;18384;48.860;9.188;2023-12-20T04:01:11;1.30;;;0.80;;
31818;SDS011;18384;48.860;9.188;2023-12-20T04:03:37;1.37;;;0.70;;
31818;SDS011;18384;48.860;9.188;2023-12-20T04:06:05;1.83;;;0.98;;
31818;SDS011;18384;48.860;9.188;2023-12-20T04:08:31;0.77;;;0.68;;
31818;SDS011;18384;48.860;9.188;2023-12-20T04:10:57;1.20;;;0.90;;
31818;SDS011;18384;48.860;9.188;2023-12-20T04:13:23;1.00;;;0.70;;
31818;SDS011;18384;48.860;9.188;2023-12-20T04:15:49;1.98;;;1.65;;
31818;SDS011;18384;48.860;9.188;2023-12-20T04:18:17;0.70;;;0.60;;
31818;SDS011;18384;48.860;9.188;2023-12-20T04:20:43;0.90;;;0.65;;
31818;SDS011;18384;48.860;9.188;2023-12-20T04:23:09;1.05;;;0.70;;
31818;SDS011;18384;48.860;9.188;2023-12-20T04:25:35;1.10;;;0.70;;
31818;SDS011;18384;48.860;9.188;2023-12-20T04:28:02;0.68;;;0.60;;
31818;SDS011;18384;48.860;9.188;2023-12-20T04:30:28;1.20;;;0.70;;
31818;SDS011;18384;48.860;9.188;2023-12-20T04:32:54;2.40;;;0.80;;
31818;SDS011;18384;48.860;9.188;2023-12-20T04:35:20;0.93;;;0.73;;
31818;SDS011;18384;48.860;9.188;2023-12-20T04:37:46;0.90;;;0.70;;
31818;SDS011;18384;48.860;9.188;2023-12-20T04:40:14;1.10;;;0.70;;
31818;SDS011;18384;48.860;9.188;2023-12-20T04:42:40;1.75;;;1.08;;
31818;SDS011;18384;48.860;9.188;2023-12-20T04:45:06;1.00;;;0.70;;
31818;SDS011;18384;48.860;9.188;2023-12-20T04:47:33;1.55;;;0.77;;
31818;SDS011;18384;48.860;9.188;2023-12-20T04:49:59;1.02;;;0.80;;
31818;SDS011;18384;48.860;9.188;2023-12-20T04:52:25;2.35;;;0.88;;
31818;SDS011;18384;48.860;9.188;2023-12-20T04:54:51;1.40;;;0.80;;
31818;SDS011;18384;48.860;9.188;2023-12-20T04:59:44;0.98;;;0.80;;
31818;SDS011;18384;48.860;9.188;2023-12-20T05:02:10;1.12;;;0.82;;
31818;SDS011;18384;48.860;9.188;2023-12-20T05:04:36;0.90;;;0.68;;
31818;SDS011;18384;48.860;9.188;2023-12-20T05:07:03;1.55;;;0.80;;
31818;SDS011;18384;48.860;9.188;2023-12-20T05:09:30;4.37;;;1.00;;
31818;SDS011;18384;48.860;9.188;2023-12-20T05:14:22;1.35;;;0.82;;
31818;SDS011;18384;48.860;9.188;2023-12-20T05:16:48;1.00;;;0.70;;
31818;SDS011;18384;48.860;9.188;2023-12-20T05:19:14;1.45;;;0.80;;
31818;SDS011;18384;48.860;9.188;2023-12-20T05:21:40;1.87;;;1.00;;
31818;SDS011;18384;48.860;9.188;2023-12-20T05:24:07;1.70;;;1.08;;
31818;SDS011;18384;48.860;9.188;2023-12-20T05:26:33;2.35;;;1.30;;
31818;SDS011;18384;48.860;9.188;2023-12-20T05:28:59;2.08;;;1.05;;
31818;SDS011;18384;48.860;9.188;2023-12-20T05:31:25;1.10;;;0.80;;
31818;SDS011;18384;48.860;9.188;2023-12-20T05:33:51;3.47;;;1.00;;
31818;SDS011;18384;48.860;9.188;2023-12-20T05:36:17;1.85;;;1.10;;
31818;SDS011;18384;48.860;9.188;2023-12-20T05:38:44;1.30;;;0.80;;
31818;SDS011;18384;48.860;9.188;2023-12-20T05:41:10;1.45;;;1.00;;
31818;SDS011;18384;48.860;9.188;2023-12-20T05:43:36;2.33;;;1.25;;
31818;SDS011;18384;48.860;9.188;2023-12-20T05:46:02;3.35;;;1.40;;
31818;SDS011;18384;48.860;9.188;2023-12-20T05:48:28;1.52;;;1.10;;
31818;SDS011;18384;48.860;9.188;2023-12-20T05:50:55;2.15;;;1.25;;
31818;SDS011;18384;48.860;9.188;2023-12-20T05:53:21;7.57;;;1.50;;
31818;SDS011;18384;48.860;9.188;2023-12-20T05:55:47;2.92;;;1.30;;
31818;SDS011;18384;48.860;9.188;2023-12-20T05:58:13;2.83;;;1.40;;
31818;SDS011;18384;48.860;9.188;2023-12-20T06:00:39;1.95;;;1.40;;
31818;SDS011;18384;48.860;9.188;2023-12-20T06:03:05;4.65;;;1.90;;
31818;SDS011;18384;48.860;9.188;2023-12-20T06:05:31;1.85;;;1.40;;
31818;SDS011;18384;48.860;9.188;2023-12-20T06:07:57;2.67;;;1.48;;
31818;SDS011;18384;48.860;9.188;2023-12-20T06:10:27;4.57;;;1.25;;
31818;SDS011;18384;48.860;9.188;2023-12-20T06:15:19;2.58;;;1.40;;
31818;SDS011;18384;48.860;9.188;2023-12-20T06:17:45;2.22;;;1.15;;
31818;SDS011;18384;48.860;9.188;2023-12-20T06:20:12;3.20;;;1.30;;
31818;SDS011;18384;48.860;9.188;2023-12-20T06:22:38;5.20;;;2.08;;
31818;SDS011;18384;48.860;9.188;2023-12-20T06:25:04;3.92;;;1.15;;
31818;SDS011;18384;48.860;9.188;2023-12-20T06:27:32;3.92;;;1.25;;
31818;SDS011;18384;48.860;9.188;2023-12-20T06:29:58;2.65;;;1.52;;
31818;SDS011;18384;48.860;9.188;2023-12-20T06:32:24;1.75;;;1.30;;
31818;SDS011;18384;48.860;9.188;2023-12-20T06:34:50;2.00;;;1.30;;
31818;SDS011;18384;48.860;9.188;2023-12-20T06:37:16;2.15;;;1.45;;
31818;SDS011;18384;48.860;9.188;2023-12-20T06:39:42;2.20;;;1.50;;
31818;SDS011;18384;48.860;9.188;2023-12-20T06:42:08;2.65;;;1.60;;
31818;SDS011;18384;48.860;9.188;2023-12-20T06:44:35;3.05;;;1.77;;
31818;SDS011;18384;48.860;9.188;2023-12-20T06:47:02;4.35;;;1.70;;
31818;SDS011;18384;48.860;9.188;2023-12-20T06:51:54;2.62;;;1.90;;
31818;SDS011;18384;48.860;9.188;2023-12-20T06:54:20;2.75;;;1.87;;
31818;SDS011;18384;48.860;9.188;2023-12-20T06:56:46;3.60;;;2.08;;
31818;SDS011;18384;48.860;9.188;2023-12-20T06:59:12;3.87;;;2.28;;
31818;SDS011;18384;48.860;9.188;2023-12-20T07:01:38;3.50;;;2.50;;
31818;SDS011;18384;48.860;9.188;2023-12-20T07:04:04;3.87;;;2.78;;
31818;SDS011;18384;48.860;9.188;2023-12-20T07:06:30;4.47;;;3.50;;
31818;SDS011;18384;48.860;9.188;2023-12-20T07:08:57;6.22;;;4.18;;
31818;SDS011;18384;48.860;9.188;2023-12-20T07:11:23;5.62;;;4.30;;
31818;SDS011;18384;48.860;9.188;2023-12-20T07:16:15;8.45;;;5.47;;
31818;SDS011;18384;48.860;9.188;2023-12-20T07:18:41;7.60;;;5.15;;
31818;SDS011;18384;48.860;9.188;2023-12-20T07:21:07;9.18;;;4.60;;
31818;SDS011;18384;48.860;9.188;2023-12-20T07:23:33;5.55;;;4.30;;
31818;SDS011;18384;48.860;9.188;2023-12-20T07:25:59;8.45;;;4.60;;
31818;SDS011;18384;48.860;9.188;2023-12-20T07:28:26;8.85;;;4.50;;
31818;SDS011;18384;48.860;9.188;2023-12-20T07:30:52;5.22;;;3.97;;
31818;SDS011;18384;48.860;9.188;2023-12-20T07:33:18;5.65;;;3.58;;
31818;SDS011;18384;48.860;9.188;2023-12-20T07:35:44;6.78;;;3.75;;
31818;SDS011;18384;48.860;9.188;2023-12-20T07:40:37;5.78;;;3.42;;
31818;SDS011;18384;48.860;9.188;2023-12-20T07:43:04;6.35;;;3.10;;
31818;SDS011;18384;48.860;9.188;2023-12-20T07:45:30;4.75;;;3.53;;
31818;SDS011;18384;48.860;9.188;2023-12-20T07:47:56;5.03;;;3.00;;
31818;SDS011;18384;48.860;9.188;2023-12-20T07:50:22;4.35;;;3.00;;
31818;SDS011;18384;48.860;9.188;2023-12-20T07:52:48;4.10;;;3.00;;
31818;SDS011;18384;48.860;9.188;2023-12-20T07:55:14;6.05;;;3.28;;
31818;SDS011;18384;48.860;9.188;2023-12-20T07:57:40;5.28;;;3.00;;
31818;SDS011;18384;48.860;9.188;2023-12-20T08:00:07;4.45;;;2.70;;
31818;SDS011;18384;48.860;9.188;2023-12-20T08:02:33;5.80;;;2.90;;
31818;SDS011;18384;48.860;9.188;2023-12-20T08:05:00;5.55;;;4.12;;
31818;SDS011;18384;48.860;9.188;2023-12-20T08:07:26;4.62;;;3.47;;
31818;SDS011;18384;48.860;9.188;2023-12-20T08:09:52;4.60;;;3.20;;
31818;SDS011;18384;48.860;9.188;2023-12-20T08:12:20;3.30;;;2.92;;
31818;SDS011;18384;48.860;9.188;2023-12-20T08:14:46;5.07;;;3.05;;
31818;SDS011;18384;48.860;9.188;2023-12-20T08:17:12;9.00;;;3.70;;
31818;SDS011;18384;48.860;9.188;2023-12-20T08:19:38;5.68;;;2.92;;
31818;SDS011;18384;48.860;9.188;2023-12-20T08:22:04;4.22;;;2.97;;
31818;SDS011;18384;48.860;9.188;2023-12-20T08:24:30;4.57;;;3.30;;
31818;SDS011;18384;48.860;9.188;2023-12-20T08:26:56;6.12;;;3.62;;
31818;SDS011;18384;48.860;9.188;2023-12-20T08:29:22;4.90;;;3.20;;
31818;SDS011;18384;48.860;9.188;2023-12-20T08:31:52;5.95;;;3.97;;
31818;SDS011;18384;48.860;9.188;2023-12-20T08:34:19;7.62;;;4.00;;
31818;SDS011;18384;48.860;9.188;2023-12-20T08:36:45;4.62;;;3.25;;
31818;SDS011;18384;48.860;9.188;2023-12-20T08:39:11;8.88;;;3.50;;
31818;SDS011;18384;48.860;9.188;2023-12-20T08:41:37;5.75;;;3.45;;
31818;SDS011;18384;48.860;9.188;2023-12-20T08:44:03;6.18;;;3.17;;
31818;SDS011;18384;48.860;9.188;2023-12-20T08:46:30;5.78;;;2.90;;
31818;SDS011;18384;48.860;9.188;2023-12-20T08:48:56;7.03;;;3.72;;
31818;SDS011;18384;48.860;9.188;2023-12-20T08:51:22;7.87;;;3.47;;
31818;SDS011;18384;48.860;9.188;2023-12-20T08:53:50;7.50;;;3.05;;
31818;SDS011;18384;48.860;9.188;2023-12-20T08:56:17;8.18;;;3.65;;
31818;SDS011;18384;48.860;9.188;2023-12-20T08:58:43;7.03;;;3.30;;
31818;SDS011;18384;48.860;9.188;2023-12-20T09:01:10;7.47;;;3.00;;
31818;SDS011;18384;48.860;9.188;2023-12-20T09:03:37;7.05;;;3.47;;
31818;SDS011;18384;48.860;9.188;2023-12-20T09:06:03;5.72;;;3.20;;
31818;SDS011;18384;48.860;9.188;2023-12-20T09:08:29;7.05;;;3.10;;
31818;SDS011;18384;48.860;9.188;2023-12-20T09:10:55;6.70;;;3.00;;
31818;SDS011;18384;48.860;9.188;2023-12-20T09:13:21;6.07;;;3.17;;
31818;SDS011;18384;48.860;9.188;2023-12-20T09:15:54;4.05;;;2.90;;
31818;SDS011;18384;48.860;9.188;2023-12-20T09:18:21;5.25;;;2.97;;
31818;SDS011;18384;48.860;9.188;2023-12-20T09:20:47;4.28;;;2.50;;
31818;SDS011;18384;48.860;9.188;2023-12-20T09:23:13;4.85;;;2.80;;
31818;SDS011;18384;48.860;9.188;2023-12-20T09:25:39;6.25;;;3.50;;
31818;SDS011;18384;48.860;9.188;2023-12-20T09:28:05;8.13;;;2.70;;
31818;SDS011;18384;48.860;9.188;2023-12-20T09:30:31;8.85;;;2.45;;
31818;SDS011;18384;48.860;9.188;2023-12-20T09:32:58;6.10;;;2.55;;
31818;SDS011;18384;48.860;9.188;2023-12-20T09:35:24;8.05;;;2.60;;
31818;SDS011;18384;48.860;9.188;2023-12-20T09:37:51;7.32;;;2.10;;
31818;SDS011;18384;48.860;9.188;2023-12-20T09:40:20;9.00;;;2.28;;
31818;SDS011;18384;48.860;9.188;2023-12-20T09:42:48;6.07;;;2.33;;
31818;SDS011;18384;48.860;9.188;2023-12-20T09:45:22;5.30;;;1.90;;
31818;SDS011;18384;48.860;9.188;2023-12-20T09:47:52;7.78;;;2.33;;
31818;SDS011;18384;48.860;9.188;2023-12-20T09:50:20;9.05;;;1.90;;
31818;SDS011;18384;48.860;9.188;2023-12-20T09:52:51;8.10;;;2.03;;
31818;SDS011;18384;48.860;9.188;2023-12-20T09:55:18;7.32;;;1.62;;
31818;SDS011;18384;48.860;9.188;2023-12-20T09:57:46;8.07;;;2.00;;
31818;SDS011;18384;48.860;9.188;2023-12-20T10:00:13;7.12;;;1.77;;
31818;SDS011;18384;48.860;9.188;2023-12-20T10:03:13;12.32;;;2.22;;
31818;SDS011;18384;48.860;9.188;2023-12-20T10:05:41;3.75;;;1.48;;
31818;SDS011;18384;48.860;9.188;2023-12-20T10:08:10;4.75;;;1.90;;
31818;SDS011;18384;48.860;9.188;2023-12-20T10:10:36;7.07;;;1.90;;
31818;SDS011;18384;48.860;9.188;2023-12-20T10:13:05;4.05;;;1.67;;
31818;SDS011;18384;48.860;9.188;2023-12-20T10:15:35;6.55;;;1.80;;
31818;SDS011;18384;48.860;9.188;2023-12-20T10:18:02;12.95;;;1.75;;
31818;SDS011;18384;48.860;9.188;2023-12-20T10:20:30;7.20;;;1.80;;
31818;SDS011;18384;48.860;9.188;2023-12-20T10:22:57;6.05;;;1.58;;
31818;SDS011;18384;48.860;9.188;2023-12-20T10:25:24;6.47;;;1.95;;
31818;SDS011;18384;48.860;9.188;2023-12-20T10:28:08;4.80;;;1.55;;
31818;SDS011;18384;48.860;9.188;2023-12-20T10:30:39;13.73;;;2.47;;
31818;SDS011;18384;48.860;9.188;2023-12-20T10:33:06;7.55;;;1.60;;
31818;SDS011;18384;48.860;9.188;2023-12-20T10:35:36;7.57;;;2.60;;
31818;SDS011;18384;48.860;9.188;2023-12-20T10:38:04;4.37;;;1.62;;
31818;SDS011;18384;48.860;9.188;2023-12-20T10:40:34;5.45;;;2.03;;
31818;SDS011;18384;48.860;9.188;2023-12-20T10:43:04;11.57;;;2.20;;
31818;SDS011;18384;48.860;9.188;2023-12-20T10:45:30;7.68;;;2.30;;
31818;SDS011;18384;48.860;9.188;2023-12-20T10:47:57;10.05;;;2.65;;
31818;SDS011;18384;48.860;9.188;2023-12-20T10:50:25;6.87;;;2.08;;
31818;SDS011;18384;48.860;9.188;2023-12-20T10:52:56;7.05;;;1.65;;
31818;SDS011;18384;48.860;9.188;2023-12-20T10:55:25;9.65;;;1.70;;
31818;SDS011;18384;48.860;9.188;2023-12-20T11:00:39;7.53;;;1.73;;
31818;SDS011;18384;48.860;9.188;2023-12-20T11:03:06;9.40;;;1.70;;
31818;SDS011;18384;48.860;9.188;2023-12-20T11:05:38;9.93;;;1.80;;
31818;SDS011;18384;48.860;9.188;2023-12-20T11:08:51;3.83;;;1.12;;
31818;SDS011;18384;48.860;9.188;2023-12-20T11:14:49;7.30;;;1.85;;
31818;SDS011;18384;48.860;9.188;2023-12-20T11:17:19;4.75;;;1.27;;
31818;SDS011;18384;48.860;9.188;2023-12-20T11:24:03;6.32;;;2.25;;
31818;SDS011;18384;48.860;9.188;2023-12-20T11:26:30;8.73;;;2.25;;
31818;SDS011;18384;48.860;9.188;2023-12-20T11:31:59;7.40;;;1.73;;
31818;SDS011;18384;48.860;9.188;2023-12-20T11:34:34;6.10;;;2.03;;
31818;SDS011;18384;48.860;9.188;2023-12-20T11:37:02;7.47;;;2.22;;
31818;SDS011;18384;48.860;9.188;2023-12-20T11:39:29;8.35;;;1.62;;
31818;SDS011;18384;48.860;9.188;2023-12-20T11:41:56;9.15;;;2.40;;
31818;SDS011;18384;48.860;9.188;2023-12-20T11:44:29;7.72;;;1.73;;
31818;SDS011;18384;48.860;9.188;2023-12-20T11:46:57;9.70;;;1.70;;
31818;SDS011;18384;48.860;9.188;2023-12-20T11:49:24;9.13;;;1.90;;
31818;SDS011;18384;48.860;9.188;2023-12-20T11:54:16;10.13;;;1.83;;
31818;SDS011;18384;48.860;9.188;2023-12-20T11:56:43;21.02;;;2.22;;
31818;SDS011;18384;48.860;9.188;2023-12-20T11:59:09;4.93;;;1.55;;
31818;SDS011;18384;48.860;9.188;2023-12-20T12:01:36;8.93;;;1.85;;
31818;SDS011;18384;48.860;9.188;2023-12-20T12:04:03;7.65;;;1.83;;
31818;SDS011;18384;48.860;9.188;2023-12-20T12:06:30;7.12;;;1.60;;
31818;SDS011;18384;48.860;9.188;2023-12-20T12:08:56;6.70;;;1.42;;
31818;SDS011;18384;48.860;9.188;2023-12-20T12:11:22;10.80;;;2.05;;
31818;SDS011;18384;48.860;9.188;2023-12-20T12:13:49;8.82;;;3.30;;
31818;SDS011;18384;48.860;9.188;2023-12-20T12:18:45;9.27;;;1.62;;
31818;SDS011;18384;48.860;9.188;2023-12-20T12:21:20;6.65;;;1.83;;
31818;SDS011;18384;48.860;9.188;2023-12-20T12:23:47;9.63;;;1.80;;
31818;SDS011;18384;48.860;9.188;2023-12-20T12:26:13;9.35;;;2.20;;
31818;SDS011;18384;48.860;9.188;2023-12-20T12:31:06;6.75;;;2.12;;
31818;SDS011;18384;48.860;9.188;2023-12-20T12:33:33;8.68;;;1.50;;
31818;SDS011;18384;48.860;9.188;2023-12-20T12:36:00;8.05;;;1.52;;
31818;SDS011;18384;48.860;9.188;2023-12-20T12:38:26;7.07;;;2.00;;
31818;SDS011;18384;48.860;9.188;2023-12-20T12:40:54;11.73;;;1.80;;
31818;SDS011;18384;48.860;9.188;2023-12-20T12:43:21;8.82;;;3.45;;
31818;SDS011;18384;48.860;9.188;2023-12-20T12:45:48;10.75;;;2.00;;
31818;SDS011;18384;48.860;9.188;2023-12-20T12:48:14;6.60;;;2.10;;
31818;SDS011;18384;48.860;9.188;2023-12-20T12:53:07;10.27;;;1.85;;
31818;SDS011;18384;48.860;9.188;2023-12-20T12:55:34;5.22;;;1.50;;
31818;SDS011;18384;48.860;9.188;2023-12-20T12:58:01;9.45;;;1.83;;
31818;SDS011;18384;48.860;9.188;2023-12-20T13:00:28;4.85;;;1.85;;
31818;SDS011;18384;48.860;9.188;2023-12-20T13:02:54;6.57;;;2.22;;
31818;SDS011;18384;48.860;9.188;2023-12-20T13:05:20;9.63;;;1.52;;
31818;SDS011;18384;48.860;9.188;2023-12-20T13:07:46;8.00;;;1.58;;
31818;SDS011;18384;48.860;9.188;2023-12-20T13:10:13;6.22;;;1.77;;
31818;SDS011;18384;48.860;9.188;2023-12-20T13:12:41;13.48;;;1.80;;
31818;SDS011;18384;48.860;9.188;2023-12-20T13:15:08;6.37;;;1.48;;
31818;SDS011;18384;48.860;9.188;2023-12-20T13:17:34;9.55;;;2.00;;
31818;SDS011;18384;48.860;9.188;2023-12-20T13:20:00;8.40;;;1.87;;
31818;SDS011;18384;48.860;9.188;2023-12-20T13:22:27;11.35;;;2.67;;
31818;SDS011;18384;48.860;9.188;2023-12-20T13:24:53;7.55;;;2.75;;
31818;SDS011;18384;48.860;9.188;2023-12-20T13:27:19;3.33;;;1.50;;
31818;SDS011;18384;48.860;9.188;2023-12-20T13:29:45;13.70;;;2.25;;
31818;SDS011;18384;48.860;9.188;2023-12-20T13:32:11;10.02;;;1.55;;
31818;SDS011;18384;48.860;9.188;2023-12-20T13:34:37;10.77;;;3.80;;
31818;SDS011;18384;48.860;9.188;2023-12-20T13:37:03;6.07;;;1.37;;
31818;SDS011;18384;48.860;9.188;2023-12-20T13:39:29;12.02;;;2.22;;
31818;SDS011;18384;48.860;9.188;2023-12-20T13:41:56;4.85;;;1.10;;
31818;SDS011;18384;48.860;9.188;2023-12-20T13:46:49;9.38;;;1.80;;
31818;SDS011;18384;48.860;9.188;2023-12-20T13:49:15;6.85;;;1.67;;
31818;SDS011;18384;48.860;9.188;2023-12-20T13:51:42;7.18;;;2.10;;
31818;SDS011;18384;48.860;9.188;2023-12-20T13:54:08;9.57;;;1.90;;
31818;SDS011;18384;48.860;9.188;2023-12-20T13:56:36;12.00;;;1.62;;
31818;SDS011;18384;48.860;9.188;2023-12-20T13:59:02;4.68;;;1.37;;
31818;SDS011;18384;48.860;9.188;2023-12-20T14:01:28;6.75;;;1.58;;
31818;SDS011;18384;48.860;9.188;2023-12-20T14:03:54;7.18;;;1.52;;
31818;SDS011;18384;48.860;9.188;2023-12-20T14:06:20;4.90;;;1.70;;
31818;SDS011;18384;48.860;9.188;2023-12-20T14:08:46;6.82;;;1.73;;
31818;SDS011;18384;48.860;9.188;2023-12-20T14:11:13;7.35;;;1.60;;
31818;SDS011;18384;48.860;9.188;2023-12-20T14:13:40;5.45;;;1.30;;
31818;SDS011;18384;48.860;9.188;2023-12-20T14:16:07;8.25;;;1.95;;
31818;SDS011;18384;48.860;9.188;2023-12-20T14:18:33;4.75;;;1.80;;
31818;SDS011;18384;48.860;9.188;2023-12-20T14:20:59;10.73;;;1.80;;
31818;SDS011;18384;48.860;9.188;2023-12-20T14:23:25;13.27;;;2.42;;
31818;SDS011;18384;48.860;9.188;2023-12-20T14:25:51;5.95;;;1.65;;
31818;SDS011;18384;48.860;9.188;2023-12-20T14:28:17;4.80;;;1.87;;
31818;SDS011;18384;48.860;9.188;2023-12-20T14:30:44;9.55;;;2.08;;
31818;SDS011;18384;48.860;9.188;2023-12-20T14:33:10;9.50;;;2.20;;
31818;SDS011;18384;48.860;9.188;2023-12-20T14:35:36;3.70;;;1.52;;
31818;SDS011;18384;48.860;9.188;2023-12-20T14:38:02;13.75;;;2.10;;
31818;SDS011;18384;48.860;9.188;2023-12-20T14:40:28;6.80;;;1.98;;
31818;SDS011;18384;48.860;9.188;2023-12-20T14:42:55;14.68;;;2.22;;
31818;SDS011;18384;48.860;9.188;2023-12-20T14:45:22;15.30;;;2.72;;
31818;SDS011;18384;48.860;9.188;2023-12-20T14:47:48;10.38;;;1.75;;
31818;SDS011;18384;48.860;9.188;2023-12-20T14:50:14;5.72;;;1.80;;
31818;SDS011;18384;48.860;9.188;2023-12-20T14:52:43;8.20;;;1.83;;
31818;SDS011;18384;48.860;9.188;2023-12-20T14:55:10;6.18;;;1.70;;
31818;SDS011;18384;48.860;9.188;2023-12-20T14:57:36;6.85;;;1.60;;
31818;SDS011;18384;48.860;9.188;2023-12-20T15:00:04;10.65;;;1.67;;
31818;SDS011;18384;48.860;9.188;2023-12-20T15:02:31;6.62;;;2.25;;
31818;SDS011;18384;48.860;9.188;2023-12-20T15:04:57;9.10;;;1.98;;
31818;SDS011;18384;48.860;9.188;2023-12-20T15:07:23;6.22;;;2.15;;
31818;SDS011;18384;48.860;9.188;2023-12-20T15:09:49;10.07;;;2.28;;
31818;SDS011;18384;48.860;9.188;2023-12-20T15:12:15;14.10;;;2.28;;
31818;SDS011;18384;48.860;9.188;2023-12-20T15:14:41;8.05;;;2.00;;
31818;SDS011;18384;48.860;9.188;2023-12-20T15:17:08;6.20;;;1.77;;
31818;SDS011;18384;48.860;9.188;2023-12-20T15:22:00;5.75;;;2.05;;
31818;SDS011;18384;48.860;9.188;2023-12-20T15:24:26;11.45;;;1.87;;
31818;SDS011;18384;48.860;9.188;2023-12-20T15:27:01;8.88;;;1.70;;
31818;SDS011;18384;48.860;9.188;2023-12-20T15:29:28;4.35;;;1.60;;
31818;SDS011;18384;48.860;9.188;2023-12-20T15:31:56;8.88;;;1.75;;
31818;SDS011;18384;48.860;9.188;2023-12-20T15:34:22;7.50;;;1.65;;
31818;SDS011;18384;48.860;9.188;2023-12-20T15:36:48;6.75;;;2.28;;
31818;SDS011;18384;48.860;9.188;2023-12-20T15:39:14;9.63;;;2.05;;